HorshamWeather.Com Historical Data
 
Daily Summary for September 20, 2014 Units:  English    Metric   Both
« Previous Day
Next Day »
Daily Weekly Monthly Yearly Custom
  Current: High: Low: Average:
Temperature: 54.6 °F 55.7 °F 53.1 °F 54.5 °F
Dew Point: 52.9 °F 53.1 °F 51.0 °F 52.1 °F
Humidity: 94% 94% 89% 92%
Wind Speed: 0.0mph 1.0mph 1.0mph 1mph
Wind Gust: 1.0mph 2.0mph - -
WindCalm - - NE
Pressure: 30.31 in 30.34 in 30.30 in -
Precipitation: 0.00 in      
Historical Graphs
 
 
Tabular Data for September 20, 2014
Time Temperature Dew Point Pressure Wind Wind Speed Wind Gust Humidity Rainfall Rate (Hourly)
00:03 55.7 °F 52.8 °F 30.34 in ESE 1.0 mph 1.0 mph 90% 0.00 in
00:08 55.7 °F 52.8 °F 30.34 in Calm   2.0 mph 90% 0.00 in
00:13 55.6 °F 52.7 °F 30.34 in ESE 1.0 mph 2.0 mph 90% 0.00 in
00:18 55.6 °F 52.7 °F 30.34 in Calm   1.0 mph 90% 0.00 in
00:23 55.5 °F 52.6 °F 30.33 in Calm     90% 0.00 in
00:28 55.5 °F 52.3 °F 30.33 in Calm     89% 0.00 in
00:33 55.5 °F 52.6 °F 30.34 in Calm     90% 0.00 in
00:38 55.5 °F 52.3 °F 30.33 in Calm     89% 0.00 in
00:43 55.4 °F 52.2 °F 30.33 in Calm     89% 0.00 in
00:48 55.4 °F 52.2 °F 30.33 in Calm     89% 0.00 in
00:53 55.3 °F 52.1 °F 30.33 in Calm     89% 0.00 in
00:58 55.2 °F 52.3 °F 30.33 in Calm     90% 0.00 in
01:03 55.2 °F 52.6 °F 30.32 in Calm     91% 0.00 in
01:08 55.3 °F 52.7 °F 30.32 in Calm     91% 0.00 in
01:13 55.4 °F 52.8 °F 30.32 in Calm   1.0 mph 91% 0.00 in
01:18 55.5 °F 52.6 °F 30.32 in Calm   1.0 mph 90% 0.00 in
01:23 55.4 °F 52.5 °F 30.32 in Calm     90% 0.00 in
01:28 55.5 °F 52.9 °F 30.32 in Calm     91% 0.00 in
01:33 55.5 °F 52.9 °F 30.32 in Calm   1.0 mph 91% 0.00 in
01:38 55.5 °F 52.9 °F 30.32 in Calm     91% 0.00 in
01:43 55.6 °F 53.0 °F 30.31 in Calm     91% 0.00 in
01:48 55.7 °F 53.1 °F 30.31 in Calm     91% 0.00 in
01:53 55.7 °F 52.8 °F 30.31 in Calm     90% 0.00 in
01:58 55.5 °F 52.6 °F 30.31 in Calm     90% 0.00 in
02:03 55.4 °F 52.5 °F 30.31 in Calm     90% 0.00 in
02:08 55.1 °F 52.2 °F 30.31 in NE 1.0 mph 1.0 mph 90% 0.00 in
02:13 54.9 °F 52.3 °F 30.32 in NE 1.0 mph 1.0 mph 91% 0.00 in
02:18 54.7 °F 52.1 °F 30.32 in Calm   1.0 mph 91% 0.00 in
02:23 54.6 °F 52.0 °F 30.32 in Calm     91% 0.00 in
02:28 54.5 °F 52.2 °F 30.32 in Calm     92% 0.00 in
02:33 54.5 °F 52.2 °F 30.32 in Calm   1.0 mph 92% 0.00 in
02:38 54.4 °F 52.1 °F 30.31 in Calm     92% 0.00 in
02:43 54.4 °F 51.8 °F 30.31 in Calm     91% 0.00 in
02:48 54.2 °F 51.6 °F 30.31 in Calm     91% 0.00 in
02:53 54.1 °F 51.5 °F 30.31 in Calm     91% 0.00 in
02:58 53.9 °F 51.3 °F 30.31 in Calm     91% 0.00 in
03:03 53.8 °F 51.5 °F 30.31 in Calm     92% 0.00 in
03:08 53.7 °F 51.4 °F 30.31 in Calm     92% 0.00 in
03:13 53.6 °F 51.6 °F 30.31 in Calm     93% 0.00 in
03:18 53.6 °F 51.6 °F 30.30 in Calm   1.0 mph 93% 0.00 in
03:23 53.6 °F 51.6 °F 30.30 in Calm     93% 0.00 in
03:28 53.5 °F 51.5 °F 30.30 in Calm   1.0 mph 93% 0.00 in
03:33 53.4 °F 51.4 °F 30.30 in Calm     93% 0.00 in
03:38 53.3 °F 51.0 °F 30.30 in Calm   1.0 mph 92% 0.00 in
03:43 53.2 °F 51.2 °F 30.30 in Calm     93% 0.00 in
03:48 53.1 °F 51.1 °F 30.31 in Calm     93% 0.00 in
03:53 53.2 °F 51.2 °F 30.31 in Calm   1.0 mph 93% 0.00 in
03:58 53.2 °F 51.2 °F 30.31 in Calm     93% 0.00 in
04:03 53.2 °F 51.2 °F 30.31 in Calm     93% 0.00 in
04:08 53.3 °F 51.3 °F 30.31 in Calm   1.0 mph 93% 0.00 in
04:13 53.3 °F 51.3 °F 30.31 in Calm   1.0 mph 93% 0.00 in
04:18 53.3 °F 51.3 °F 30.31 in Calm   1.0 mph 93% 0.00 in
04:23 53.3 °F 51.6 °F 30.31 in Calm   2.0 mph 94% 0.00 in
04:28 53.4 °F 51.7 °F 30.31 in Calm   1.0 mph 94% 0.00 in
04:33 53.5 °F 51.8 °F 30.31 in Calm   1.0 mph 94% 0.00 in
04:38 53.7 °F 52.0 °F 30.31 in Calm   1.0 mph 94% 0.00 in
04:43 53.7 °F 52.0 °F 30.31 in Calm     94% 0.00 in
04:48 53.7 °F 52.0 °F 30.31 in Calm     94% 0.00 in
04:53 53.8 °F 52.1 °F 30.31 in Calm     94% 0.00 in
04:58 53.9 °F 52.2 °F 30.31 in Calm     94% 0.00 in
05:03 53.9 °F 51.9 °F 30.31 in NNE 1.0 mph 1.0 mph 93% 0.00 in
05:08 53.9 °F 51.9 °F 30.31 in NNE 1.0 mph 2.0 mph 93% 0.00 in
05:13 54.0 °F 52.0 °F 30.31 in Calm   1.0 mph 93% 0.00 in
05:18 54.1 °F 52.1 °F 30.31 in Calm   1.0 mph 93% 0.00 in
05:23 54.2 °F 52.2 °F 30.31 in Calm   1.0 mph 93% 0.00 in
05:28 54.2 °F 52.2 °F 30.31 in Calm   1.0 mph 93% 0.00 in
05:33 54.3 °F 52.6 °F 30.31 in Calm     94% 0.00 in
05:38 54.4 °F 52.7 °F 30.31 in Calm     94% 0.00 in
05:43 54.4 °F 52.4 °F 30.31 in NNE 1.0 mph 2.0 mph 93% 0.00 in
05:48 54.5 °F 52.8 °F 30.31 in NNE 1.0 mph 2.0 mph 94% 0.00 in
05:53 54.6 °F 52.9 °F 30.31 in Calm   1.0 mph 94% 0.00 in
HorshamWeather.Com
Compliments of Weather Underground